Time;durP1;ratioP1;P1;durP2;ratioP2;P2;SDS_P1;SDS_P2;PMS_P1;PMS_P2;Temp;Humidity;BMP_temperature;BMP_pressure;BME280_temperature;BME280_humidity;BME280_pressure;Samples;Min_cycle;Max_cycle;Signal;HPM_P1;HPM_P2
2021/04/17 00:02:21;;;;;;;8.07;5.43;;;;;;;3.16;72.72;99114.19;4984590;28;20036;-74
2021/04/17 00:04:49;;;;;;;8.57;5.45;;;;;;;3.16;72.25;99106.41;4986513;28;20034;-73
2021/04/17 00:07:16;;;;;;;10.05;6.13;;;;;;;3.16;71.62;99112.44;4987317;28;20031;-74
2021/04/17 00:09:41;;;;;;;7.07;5.28;;;;;;;3.16;71.44;99109.88;4985704;28;20412;-73
2021/04/17 00:12:16;;;;;;;7.88;5.70;;;;;;;3.14;71.99;99102.97;4987152;28;20030;-74
2021/04/17 00:14:42;;;;;;;10.50;5.72;;;;;;;3.13;72.29;99103.84;4988902;28;20057;-73
2021/04/17 00:17:08;;;;;;;8.73;6.10;;;;;;;3.15;72.62;99102.97;4989341;28;20034;-74
2021/04/17 00:19:35;;;;;;;9.60;6.32;;;;;;;3.14;72.26;99100.38;4990969;28;20038;-73
2021/04/17 00:22:00;;;;;;;8.10;5.83;;;;;;;3.14;72.22;99101.25;4990558;28;20030;-73
2021/04/17 00:24:25;;;;;;;8.85;6.13;;;;;;;3.11;72.60;99087.47;4991015;28;20034;-73
2021/04/17 00:26:51;;;;;;;8.95;5.93;;;;;;;3.13;72.43;99096.09;4991900;28;20052;-74
2021/04/17 00:29:22;;;;;;;9.95;6.40;;;;;;;3.10;72.33;99085.75;4985152;28;20062;-73
2021/04/17 00:31:47;;;;;;;9.60;5.88;;;;;;;3.10;72.93;99088.31;4995678;28;20052;-74
2021/04/17 00:34:13;;;;;;;8.18;6.00;;;;;;;3.06;72.58;99084.00;4990300;28;20054;-74
2021/04/17 00:36:38;;;;;;;9.32;5.68;;;;;;;3.04;73.95;99086.63;4990945;28;20034;-74
2021/04/17 00:39:05;;;;;;;9.98;6.00;;;;;;;3.00;73.75;99087.47;4989430;28;20412;-74
2021/04/17 00:41:31;;;;;;;9.15;5.53;;;;;;;2.97;73.81;99082.28;4995373;28;20034;-74
2021/04/17 00:43:56;;;;;;;9.95;5.97;;;;;;;2.94;74.85;99071.09;4992815;28;20061;-74
2021/04/17 00:46:22;;;;;;;8.77;6.20;;;;;;;2.92;74.41;99072.81;4991296;28;20109;-74
2021/04/17 00:48:47;;;;;;;7.30;5.13;;;;;;;2.88;74.33;99071.13;4990479;28;20034;-74
2021/04/17 00:51:14;;;;;;;11.25;7.22;;;;;;;2.83;74.48;99076.25;4994485;28;20061;-74
2021/04/17 00:53:42;;;;;;;9.80;6.83;;;;;;;2.82;74.84;99071.97;4989257;28;20076;-74
2021/04/17 00:56:10;;;;;;;9.30;6.78;;;;;;;2.83;74.59;99073.69;4993005;28;20283;-74
2021/04/17 00:58:36;;;;;;;;;;;;;;;2.83;74.44;99068.53;4992579;28;20025;-73
2021/04/17 01:01:03;;;;;;;11.82;6.57;;;;;;;2.86;74.61;99068.53;4989619;28;19913;-74
2021/04/17 01:03:31;;;;;;;;;;;;;;;2.84;74.91;99067.66;4987221;28;20034;-74
2021/04/17 01:06:03;;;;;;;7.90;5.95;;;;;;;2.83;75.12;99073.69;4993385;28;19918;-74
2021/04/17 01:08:44;;;;;;;7.68;5.53;;;;;;;2.84;73.99;99070.25;4993403;28;20118;-74
2021/04/17 01:11:16;;;;;;;9.70;6.55;;;;;;;2.82;74.96;99069.38;5002063;28;20050;-74
2021/04/17 01:13:42;;;;;;;9.05;5.70;;;;;;;2.83;75.10;99068.53;4987547;28;20130;-74
2021/04/17 01:16:08;;;;;;;7.28;5.75;;;;;;;2.77;75.20;99077.09;4990079;28;20058;-74
2021/04/17 01:18:35;;;;;;;9.40;6.55;;;;;;;2.73;75.22;99070.25;4993411;28;20041;-74
2021/04/17 01:21:01;;;;;;;9.10;6.00;;;;;;;2.67;76.51;99071.94;4986957;28;20025;-73
2021/04/17 01:23:37;;;;;;;9.27;5.80;;;;;;;2.55;76.50;99071.94;4988630;28;20451;-73
2021/04/17 01:26:30;;;;;;;8.65;5.72;;;;;;;2.52;76.43;99077.06;4988996;28;20034;-74
2021/04/17 01:28:57;;;;;;;11.88;7.07;;;;;;;2.48;75.41;99066.75;4981523;28;20052;-73
2021/04/17 01:31:27;;;;;;;10.15;5.78;;;;;;;2.47;76.10;99065.00;4983537;28;20022;-73
2021/04/17 01:33:56;;;;;;;9.95;6.50;;;;;;;2.45;76.57;99074.47;4991551;28;20064;-73
2021/04/17 01:36:23;;;;;;;9.20;5.60;;;;;;;2.39;76.75;99068.44;5005001;28;20045;-73
2021/04/17 01:38:51;;;;;;;10.17;5.93;;;;;;;2.40;77.00;99071.03;4986174;28;20038;-73
2021/04/17 01:41:20;;;;;;;10.27;6.47;;;;;;;2.40;77.07;99071.03;4990189;28;20077;-72
2021/04/17 01:43:55;;;;;;;8.25;5.60;;;;;;;2.33;77.29;99060.69;4981371;28;20038;-72
2021/04/17 01:46:26;;;;;;;8.23;5.65;;;;;;;2.34;77.56;99065.84;4987371;28;20026;-74
2021/04/17 01:48:58;;;;;;;10.55;5.95;;;;;;;2.32;76.74;99061.53;4984406;28;20181;-74
2021/04/17 01:51:26;;;;;;;7.38;5.35;;;;;;;2.36;76.96;99064.13;4989337;28;20332;-74
2021/04/17 01:53:52;;;;;;;11.25;6.22;;;;;;;2.36;77.69;99069.31;4984596;28;20060;-74
2021/04/17 01:56:23;;;;;;;9.52;6.07;;;;;;;2.36;77.71;99060.69;4979084;28;20354;-74
2021/04/17 01:58:50;;;;;;;8.40;5.90;;;;;;;2.34;77.65;99064.97;4987551;28;20026;-73
2021/04/17 02:01:20;;;;;;;9.20;6.07;;;;;;;2.32;77.92;99064.97;4992714;28;20114;-73
2021/04/17 02:03:47;;;;;;;11.65;6.65;;;;;;;2.34;77.23;99062.41;4985338;28;20047;-73
2021/04/17 02:06:13;;;;;;;9.30;6.18;;;;;;;2.34;77.66;99057.25;4988163;28;20034;-73
2021/04/17 02:08:38;;;;;;;9.68;6.50;;;;;;;2.31;76.75;99054.66;4988379;28;20053;-73
2021/04/17 02:11:05;;;;;;;9.13;6.03;;;;;;;2.28;77.00;99054.66;4987344;28;20034;-74
2021/04/17 02:13:33;;;;;;;10.50;6.35;;;;;;;2.29;77.62;99052.06;4988591;28;20411;-73
2021/04/17 02:16:03;;;;;;;9.27;6.03;;;;;;;2.28;77.80;99054.66;4983920;28;20429;-73
2021/04/17 02:18:39;;;;;;;11.02;6.65;;;;;;;2.25;78.02;99055.50;4988851;28;20037;-72
2021/04/17 02:21:08;;;;;;;9.32;6.10;;;;;;;2.24;77.97;99052.94;4979179;28;20030;-73
2021/04/17 02:23:35;;;;;;;8.52;6.00;;;;;;;2.24;78.21;99046.06;4995962;28;20516;-73
2021/04/17 02:26:02;;;;;;;8.73;6.47;;;;;;;2.26;78.08;99041.75;4988345;28;20067;-73
2021/04/17 02:28:29;;;;;;;8.52;6.05;;;;;;;2.24;77.88;99037.44;4989088;28;20267;-73
2021/04/17 02:31:00;;;;;;;9.37;6.37;;;;;;;2.27;77.46;99048.66;4990678;28;20161;-74
2021/04/17 02:33:26;;;;;;;7.72;6.00;;;;;;;2.28;78.07;99047.78;4991714;28;20061;-73
2021/04/17 02:35:54;;;;;;;10.18;6.82;;;;;;;2.26;78.03;99040.91;4991573;28;20058;-74
2021/04/17 02:38:19;;;;;;;9.95;6.32;;;;;;;2.26;78.18;99043.47;4982360;28;20023;-74
2021/04/17 02:40:45;;;;;;;10.13;6.88;;;;;;;2.26;77.46;99040.91;4984158;28;20101;-74
2021/04/17 02:43:13;;;;;;;10.27;6.72;;;;;;;2.26;77.61;99043.47;4989952;28;20041;-73
2021/04/17 02:45:38;;;;;;;9.93;6.93;;;;;;;2.22;77.36;99037.44;4990594;28;20088;-73
2021/04/17 02:48:04;;;;;;;10.82;6.68;;;;;;;2.20;77.45;99040.88;4984075;28;20528;-73
2021/04/17 02:50:30;;;;;;;10.07;6.45;;;;;;;2.16;78.01;99037.41;5002230;28;20034;-74
2021/04/17 02:52:55;;;;;;;11.63;7.78;;;;;;;2.15;77.91;99045.16;4991643;28;20028;-73
2021/04/17 02:55:21;;;;;;;11.55;7.18;;;;;;;2.09;77.99;99038.28;4986828;28;20175;-73
2021/04/17 02:57:47;;;;;;;12.10;7.22;;;;;;;2.10;77.91;99040.00;4988882;28;20022;-74
2021/04/17 03:00:17;;;;;;;10.68;6.70;;;;;;;2.04;77.89;99034.81;4985218;28;20113;-74
2021/04/17 03:02:42;;;;;;;8.43;6.40;;;;;;;2.06;77.61;99046.00;4986700;28;20407;-74
2021/04/17 03:05:09;;;;;;;9.63;6.88;;;;;;;2.04;78.59;99034.81;4989919;28;20048;-74
2021/04/17 03:07:34;;;;;;;9.55;6.85;;;;;;;2.00;79.37;99031.34;4985913;28;20065;-73
2021/04/17 03:10:00;;;;;;;11.57;6.63;;;;;;;1.98;79.75;99033.09;4989122;28;20461;-74
2021/04/17 03:12:25;;;;;;;12.50;6.60;;;;;;;1.94;79.30;99033.06;4981744;28;20515;-74
2021/04/17 03:14:50;;;;;;;12.30;8.40;;;;;;;1.89;79.73;99027.88;4974878;28;20057;-73
2021/04/17 03:17:16;;;;;;;9.20;6.15;;;;;;;1.88;80.02;99033.03;4988348;28;20065;-74
2021/04/17 03:19:42;;;;;;;10.07;7.22;;;;;;;1.87;80.53;99036.44;4989570;28;20084;-74
2021/04/17 03:22:10;;;;;;;11.15;6.60;;;;;;;1.84;80.10;99026.13;4988910;28;20029;-74
2021/04/17 03:24:36;;;;;;;11.63;6.90;;;;;;;1.79;80.40;99030.41;4990431;28;20079;-73
2021/04/17 03:27:04;;;;;;;11.85;6.60;;;;;;;1.76;80.65;99018.38;4987036;28;20030;-74
2021/04/17 03:29:29;;;;;;;9.40;6.97;;;;;;;1.75;80.87;99027.81;4988111;28;20416;-74
2021/04/17 03:31:57;;;;;;;11.55;7.60;;;;;;;1.73;80.88;99026.94;4989217;28;20038;-74
2021/04/17 03:34:23;;;;;;;9.82;6.43;;;;;;;1.74;80.31;99027.81;4989379;28;20554;-73
2021/04/17 03:36:48;;;;;;;12.85;7.60;;;;;;;1.72;81.03;99024.34;4993907;28;20038;-73
2021/04/17 03:39:14;;;;;;;10.23;6.95;;;;;;;1.74;80.86;99028.66;4988112;28;20101;-74
2021/04/17 03:41:39;;;;;;;10.93;7.85;;;;;;;1.79;81.25;99027.84;4987145;28;20042;-74
2021/04/17 03:44:05;;;;;;;10.13;7.03;;;;;;;1.74;80.84;99026.09;4989552;28;20511;-73
2021/04/17 03:46:30;;;;;;;12.93;6.85;;;;;;;1.71;80.85;99028.66;4983465;28;20026;-74
2021/04/17 03:48:58;;;;;;;9.00;6.80;;;;;;;1.71;80.49;99023.50;4988207;28;20551;-74
2021/04/17 03:51:24;;;;;;;12.70;7.25;;;;;;;1.74;81.13;99018.34;4988524;28;20034;-73
2021/04/17 03:53:49;;;;;;;10.60;7.00;;;;;;;1.77;80.53;99018.38;4986592;28;20055;-73
2021/04/17 03:56:15;;;;;;;10.23;8.10;;;;;;;1.84;80.17;99026.13;4989232;28;20036;-73
2021/04/17 03:58:41;;;;;;;12.25;8.02;;;;;;;1.90;80.25;99026.16;4990783;28;20056;-73
2021/04/17 04:01:09;;;;;;;12.25;8.15;;;;;;;1.83;80.62;99033.03;4985638;28;20065;-74
2021/04/17 04:03:34;;;;;;;13.70;7.82;;;;;;;1.79;80.28;99027.84;4981111;28;20041;-74
2021/04/17 04:06:00;;;;;;;10.88;7.60;;;;;;;1.78;80.59;99024.41;4988271;28;20034;-74
2021/04/17 04:08:25;;;;;;;12.38;7.95;;;;;;;1.80;80.65;99033.00;4986033;28;20091;-74
2021/04/17 04:10:53;;;;;;;12.45;8.15;;;;;;;1.84;80.17;99039.88;4983985;28;20065;-74
2021/04/17 04:13:18;;;;;;;;;;;;;;;1.86;80.66;99039.88;4984978;28;20125;-73
2021/04/17 04:15:43;;;;;;;14.13;9.40;;;;;;;1.85;80.51;99045.91;4987186;28;19996;-74
2021/04/17 04:18:11;;;;;;;12.25;9.18;;;;;;;1.84;80.19;99042.44;4974113;28;20242;-74
2021/04/17 04:20:37;;;;;;;13.45;8.93;;;;;;;1.85;80.71;99035.56;4979463;28;20026;-74
2021/04/17 04:23:03;;;;;;;11.95;7.75;;;;;;;1.86;80.55;99045.03;4988806;28;20032;-74
2021/04/17 04:25:29;;;;;;;12.70;8.55;;;;;;;1.90;80.44;99044.22;4987513;28;20034;-74
2021/04/17 04:27:56;;;;;;;12.27;8.63;;;;;;;1.92;79.96;99039.91;4989478;28;20018;-73
2021/04/17 04:30:26;;;;;;;11.98;7.85;;;;;;;1.93;80.17;99044.22;4981746;28;20034;-74
2021/04/17 04:32:51;;;;;;;10.82;7.93;;;;;;;1.97;79.88;99043.38;4985546;28;20110;-74
2021/04/17 04:35:17;;;;;;;10.82;7.65;;;;;;;1.98;79.65;99042.53;4988214;28;20061;-74
2021/04/17 04:37:42;;;;;;;12.05;8.07;;;;;;;2.04;79.65;99047.69;4987350;28;20076;-74
2021/04/17 04:40:10;;;;;;;10.35;7.45;;;;;;;2.05;79.86;99047.72;4989151;28;20027;-75
2021/04/17 04:42:36;;;;;;;12.25;7.57;;;;;;;2.09;80.18;99040.84;4980849;28;20066;-74
2021/04/17 04:45:05;;;;;;;12.10;7.75;;;;;;;2.10;79.70;99043.44;4984843;28;20042;-74
2021/04/17 04:47:30;;;;;;;10.82;7.10;;;;;;;2.13;79.70;99047.75;4982507;28;20156;-74
2021/04/17 04:49:55;;;;;;;13.98;8.65;;;;;;;2.18;79.83;99047.75;4970761;28;20484;-74
2021/04/17 04:52:22;;;;;;;14.85;9.27;;;;;;;2.14;80.14;99038.28;4993807;28;20072;-74
2021/04/17 04:54:47;;;;;;;11.75;8.52;;;;;;;2.08;79.73;99045.16;4988392;28;20495;-75
2021/04/17 04:57:15;;;;;;;14.38;8.80;;;;;;;2.08;80.02;99055.47;4985674;28;20112;-74
2021/04/17 04:59:40;;;;;;;12.98;8.65;;;;;;;2.02;80.21;99054.56;4968198;28;20022;-74
2021/04/17 05:02:06;;;;;;;24.67;12.98;;;;;;;1.95;80.36;99052.84;4987594;28;20129;-75
2021/04/17 05:04:34;;;;;;;17.73;10.68;;;;;;;1.99;80.37;99052.84;4991631;28;20092;-74
2021/04/17 05:06:59;;;;;;;14.70;9.75;;;;;;;2.03;80.36;99056.28;4988668;28;20160;-75
2021/04/17 05:09:24;;;;;;;12.55;8.10;;;;;;;2.08;80.05;99041.69;4989266;28;20030;-74
2021/04/17 05:11:50;;;;;;;12.75;8.07;;;;;;;2.14;79.92;99053.78;4990919;28;20034;-75
2021/04/17 05:14:15;;;;;;;17.52;9.35;;;;;;;2.17;80.62;99044.28;4992910;28;20034;-75
2021/04/17 05:16:41;;;;;;;16.15;10.60;;;;;;;2.26;80.50;99048.63;4991857;28;20026;-74
2021/04/17 05:19:06;;;;;;;16.13;10.23;;;;;;;2.30;79.84;99046.03;4997850;28;20026;-74
2021/04/17 05:21:32;;;;;;;13.27;8.55;;;;;;;2.42;79.36;99050.41;4986118;28;21946;-75
2021/04/17 05:23:59;;;;;;;13.02;8.90;;;;;;;2.48;79.66;99048.66;4980188;28;20066;-74
2021/04/17 05:26:24;;;;;;;13.00;8.77;;;;;;;2.57;78.65;99047.84;4985082;28;20034;-75
2021/04/17 05:28:49;;;;;;;19.38;9.65;;;;;;;2.63;78.38;99045.25;4989039;28;20086;-75
2021/04/17 05:31:15;;;;;;;13.30;8.88;;;;;;;2.65;77.75;99043.53;4991458;28;20049;-74
2021/04/17 05:33:40;;;;;;;12.30;8.40;;;;;;;2.74;77.30;99042.69;4988471;28;20080;-75
2021/04/17 05:36:06;;;;;;;13.30;8.88;;;;;;;2.82;77.22;99046.13;4991214;28;20026;-75
2021/04/17 05:38:32;;;;;;;12.52;8.48;;;;;;;2.92;76.84;99047.84;4989869;28;20022;-75
2021/04/17 05:40:57;;;;;;;13.50;8.25;;;;;;;2.96;76.56;99049.56;4988972;28;20394;-75
2021/04/17 05:43:22;;;;;;;13.90;8.43;;;;;;;3.08;75.84;99043.53;4989828;28;20033;-74
2021/04/17 05:45:48;;;;;;;12.77;8.43;;;;;;;3.17;75.38;99048.72;4989948;28;20069;-73
2021/04/17 05:48:13;;;;;;;12.15;8.43;;;;;;;3.27;75.42;99050.41;4988413;28;20033;-73
2021/04/17 05:50:39;;;;;;;11.25;7.78;;;;;;;3.29;74.79;99053.00;4971153;28;20487;-74
2021/04/17 05:53:04;;;;;;;11.10;8.02;;;;;;;3.35;74.54;99043.53;4990818;28;20042;-73
2021/04/17 05:55:30;;;;;;;13.77;8.40;;;;;;;3.42;74.39;99039.19;4988857;28;20030;-73
2021/04/17 05:57:56;;;;;;;13.93;9.70;;;;;;;3.40;74.63;99046.09;4986686;28;20022;-74
2021/04/17 06:00:22;;;;;;;13.07;8.73;;;;;;;3.51;74.49;99036.59;4993867;28;20057;-73
2021/04/17 06:02:47;;;;;;;14.30;9.18;;;;;;;3.60;73.75;99036.56;4989063;28;20084;-74
2021/04/17 06:05:13;;;;;;;16.52;9.75;;;;;;;3.63;74.79;99040.88;4988933;28;20049;-73
2021/04/17 06:07:38;;;;;;;11.38;8.23;;;;;;;3.73;74.92;99037.38;4994892;28;20548;-73
2021/04/17 06:10:05;;;;;;;13.35;8.93;;;;;;;3.82;74.71;99045.09;4989627;28;20096;-73
2021/04/17 06:12:30;;;;;;;15.25;9.80;;;;;;;3.81;73.74;99043.41;4989764;28;20030;-74
2021/04/17 06:14:56;;;;;;;12.95;8.50;;;;;;;3.92;73.03;99048.53;4989091;28;20261;-74
2021/04/17 06:17:21;;;;;;;13.70;9.73;;;;;;;4.09;72.81;99049.31;4992013;28;20065;-74
2021/04/17 06:19:46;;;;;;;13.02;8.32;;;;;;;4.27;72.26;99043.19;4988433;28;20038;-74
2021/04/17 06:22:12;;;;;;;15.27;9.48;;;;;;;4.38;70.63;99034.50;4981362;28;20233;-74
2021/04/17 06:24:37;;;;;;;16.98;10.05;;;;;;;4.62;69.84;99048.13;4987746;28;20543;-74
2021/04/17 06:27:05;;;;;;;13.45;9.02;;;;;;;4.54;69.88;99054.25;4984816;28;20118;-75
2021/04/17 06:29:31;;;;;;;11.35;8.68;;;;;;;4.63;69.94;99055.91;4983148;28;20120;-75
2021/04/17 06:31:56;;;;;;;14.00;8.90;;;;;;;4.74;69.43;99053.22;4988717;28;20034;-74
2021/04/17 06:34:22;;;;;;;14.15;8.25;;;;;;;4.78;69.76;99047.16;4986935;28;20492;-74
2021/04/17 06:36:47;;;;;;;12.65;9.07;;;;;;;4.95;69.06;99048.75;4982259;28;20451;-74
2021/04/17 06:39:13;;;;;;;12.35;9.30;;;;;;;5.01;68.66;99049.59;4989337;28;20040;-75
2021/04/17 06:41:41;;;;;;;14.25;8.77;;;;;;;5.35;67.11;99052.75;4995649;28;20040;-74
2021/04/17 06:44:08;;;;;;;14.82;9.02;;;;;;;5.47;67.02;99044.84;4995402;28;20022;-74
2021/04/17 06:46:34;;;;;;;11.48;8.05;;;;;;;5.64;66.51;99037.75;4988311;28;20026;-74
2021/04/17 06:49:06;;;;;;;12.27;8.60;;;;;;;5.74;65.29;99043.69;4985031;28;20756;-74
2021/04/17 06:51:35;;;;;;;14.73;8.43;;;;;;;5.79;64.48;99037.59;4973552;28;20061;-74
2021/04/17 06:54:00;;;;;;;12.32;8.75;;;;;;;6.05;64.04;99039.03;4989340;28;20118;-74
2021/04/17 06:56:26;;;;;;;10.77;7.95;;;;;;;6.07;62.45;99032.94;4990000;28;20116;-74
2021/04/17 06:58:52;;;;;;;17.73;9.82;;;;;;;5.79;62.90;99040.19;4989356;28;20107;-74
2021/04/17 07:01:18;;;;;;;18.33;8.52;;;;;;;6.19;62.38;99039.72;4988080;28;20290;-74
2021/04/17 07:03:43;;;;;;;14.38;7.80;;;;;;;6.46;61.04;99028.09;4988930;28;20069;-74
2021/04/17 07:06:09;;;;;;;11.60;8.40;;;;;;;6.48;60.77;99029.78;4988614;28;20041;-75
2021/04/17 07:08:41;;;;;;;14.40;9.77;;;;;;;6.02;61.78;99029.53;4986468;28;20492;-74
2021/04/17 07:11:07;;;;;;;17.25;9.65;;;;;;;6.84;59.78;99028.38;4970250;28;20102;-74
2021/04/17 07:13:34;;;;;;;14.25;9.50;;;;;;;6.62;59.60;99026.97;4993431;28;20072;-74
2021/04/17 07:16:10;;;;;;;13.73;8.75;;;;;;;6.64;60.28;99023.47;4988384;28;20030;-74
2021/04/17 07:18:37;;;;;;;13.63;8.38;;;;;;;6.41;60.58;99029.91;4988607;28;20118;-75
2021/04/17 07:21:15;;;;;;;16.63;8.73;;;;;;;6.29;60.88;99030.91;4978493;28;20033;-75
2021/04/17 07:23:45;;;;;;;11.90;7.90;;;;;;;6.49;60.40;99025.44;4985522;28;20508;-74
2021/04/17 07:26:13;;;;;;;11.82;8.50;;;;;;;6.60;58.97;99027.00;4990631;28;20038;-75
2021/04/17 07:28:56;;;;;;;12.90;8.18;;;;;;;6.68;60.05;99026.91;4988986;28;20481;-74
2021/04/17 07:31:24;;;;;;;12.43;8.60;;;;;;;7.03;58.77;99023.72;4985455;28;20064;-74
2021/04/17 07:33:49;;;;;;;12.75;8.60;;;;;;;6.60;59.70;99027.00;4981632;28;20092;-74
2021/04/17 07:36:18;;;;;;;13.00;9.55;;;;;;;6.66;59.49;99029.50;4984512;28;20031;-75
2021/04/17 07:38:44;;;;;;;14.25;9.32;;;;;;;7.30;57.98;99030.22;4971310;28;20111;-75
2021/04/17 07:41:10;;;;;;;15.32;8.75;;;;;;;7.65;56.85;99022.59;4972423;28;20026;-73
2021/04/17 07:43:58;;;;;;;10.80;8.10;;;;;;;8.06;54.47;99018.31;4993219;28;20030;-73
2021/04/17 07:46:43;;;;;;;11.38;8.18;;;;;;;8.55;52.93;99015.56;4995627;28;20027;-73
2021/04/17 07:49:19;;;;;;;13.65;7.25;;;;;;;8.43;53.50;99013.19;4993342;28;20037;-73
2021/04/17 07:52:10;;;;;;;14.23;8.50;;;;;;;8.74;51.93;99006.38;4992253;28;20085;-74
2021/04/17 07:54:38;;;;;;;12.27;7.13;;;;;;;8.68;52.45;99003.94;4994224;28;20038;-73
2021/04/17 07:57:08;;;;;;;11.25;7.82;;;;;;;8.24;52.75;99010.13;4994516;28;20046;-73
2021/04/17 07:59:36;;;;;;;10.32;7.03;;;;;;;8.22;53.40;99011.91;4991350;28;20072;-73
2021/04/17 08:02:02;;;;;;;10.15;6.93;;;;;;;7.78;54.48;99015.44;4982960;28;20051;-73
2021/04/17 08:04:29;;;;;;;11.38;7.97;;;;;;;7.26;55.70;99026.81;4993981;28;20022;-75
2021/04/17 08:06:56;;;;;;;13.48;7.70;;;;;;;7.18;56.07;99020.03;4991935;28;20040;-75
2021/04/17 08:09:22;;;;;;;17.02;8.18;;;;;;;7.37;55.51;99014.44;4991991;28;20258;-75
2021/04/17 08:11:56;;;;;;;12.30;8.00;;;;;;;7.78;54.70;99007.63;4985644;28;20030;-74
2021/04/17 08:14:23;;;;;;;18.83;7.90;;;;;;;8.32;52.69;98997.81;4988421;28;20050;-74
2021/04/17 08:16:49;;;;;;;14.70;7.88;;;;;;;8.34;52.66;98998.63;4990332;28;20026;-73
2021/04/17 08:19:15;;;;;;;11.90;7.45;;;;;;;8.59;52.17;98995.47;4986032;28;20092;-72
2021/04/17 08:21:41;;;;;;;10.35;7.82;;;;;;;8.56;52.36;98998.13;4986253;28;20507;-72
2021/04/17 08:24:09;;;;;;;11.05;7.53;;;;;;;8.12;53.80;98999.94;4983675;28;20124;-72
2021/04/17 08:26:35;;;;;;;11.93;7.65;;;;;;;8.31;53.98;99006.47;4984918;28;20428;-73
2021/04/17 08:29:02;;;;;;;12.50;7.57;;;;;;;8.66;53.06;99000.50;4986258;28;20026;-73
2021/04/17 08:31:33;;;;;;;11.43;7.55;;;;;;;9.65;50.46;98991.88;4987781;28;20415;-72
2021/04/17 08:34:22;;;;;;;13.10;7.28;;;;;;;10.23;47.38;98985.03;4989571;28;20121;-74
2021/04/17 08:36:53;;;;;;;12.07;7.25;;;;;;;10.08;48.78;98992.34;4995292;28;20025;-74
2021/04/17 08:39:33;;;;;;;10.25;7.43;;;;;;;9.02;51.48;98997.88;5018206;28;20022;-74
2021/04/17 08:42:00;;;;;;;7.80;5.90;;;;;;;9.85;49.71;98989.56;4985725;28;20058;-74
2021/04/17 08:44:39;;;;;;;13.10;5.77;;;;;;;8.94;49.22;98998.09;4977731;28;20113;-73
2021/04/17 08:47:07;;;;;;;8.60;5.47;;;;;;;10.31;46.34;98983.88;4993200;28;20025;-73
2021/04/17 08:49:34;;;;;;;;;;;;;;;10.85;44.04;98980.41;4990781;28;20548;-74
2021/04/17 08:52:21;;;;;;;9.43;6.47;;;;;;;10.48;45.41;98981.59;4991244;28;19921;-74
2021/04/17 08:55:11;;;;;;;9.13;5.75;;;;;;;12.50;41.05;98970.97;4995937;28;20050;-74
2021/04/17 08:57:37;;;;;;;7.55;5.53;;;;;;;12.89;39.31;98965.03;4988949;28;20889;-74
2021/04/17 09:00:08;;;;;;;8.13;5.43;;;;;;;13.19;38.52;98966.41;4992480;28;20105;-74
2021/04/17 09:02:44;;;;;;;8.13;5.35;;;;;;;12.60;40.04;98961.81;4988744;28;20046;-74
2021/04/17 09:05:14;;;;;;;9.18;6.10;;;;;;;11.95;41.63;98964.34;4987674;28;20038;-75
2021/04/17 09:07:45;;;;;;;11.40;5.93;;;;;;;11.24;43.63;98965.16;4988950;28;20033;-73
2021/04/17 09:10:23;;;;;;;7.55;5.30;;;;;;;12.30;40.18;98957.78;4991151;28;20050;-73
2021/04/17 09:13:27;;;;;;;7.85;4.97;;;;;;;12.63;39.06;98953.81;4989783;28;20092;-75
2021/04/17 09:16:07;;;;;;;7.03;4.82;;;;;;;11.76;41.21;98951.09;4912120;29;20518;-74
2021/04/17 09:18:32;;;;;;;8.13;5.38;;;;;;;10.79;42.52;98960.56;4912698;29;20031;-75
2021/04/17 09:20:58;;;;;;;8.55;4.85;;;;;;;10.74;43.20;98962.44;4947640;28;20041;-75
2021/04/17 09:23:46;;;;;;;6.65;4.80;;;;;;;10.51;43.95;98964.97;4991199;28;20491;-75
2021/04/17 09:26:30;;;;;;;8.15;4.75;;;;;;;9.98;45.60;98970.03;4988190;28;20027;-75
2021/04/17 09:29:17;;;;;;;10.35;5.47;;;;;;;10.63;43.22;98967.19;4980306;28;20109;-75
2021/04/17 09:31:42;;;;;;;;;;;;;;;10.55;43.43;98959.56;4988274;28;20635;-75
2021/04/17 09:34:15;;;;;;;7.68;4.88;;;;;;;10.68;43.95;98959.19;4980185;28;19929;-75
2021/04/17 09:36:47;;;;;;;8.18;5.40;;;;;;;10.70;43.63;98947.75;4989386;28;20553;-74
2021/04/17 09:39:32;;;;;;;8.82;5.22;;;;;;;10.89;43.10;98943.63;4994898;28;20126;-75
2021/04/17 09:42:06;;;;;;;8.18;4.70;;;;;;;10.81;42.55;98947.44;4991262;28;20121;-75
2021/04/17 09:44:49;;;;;;;10.60;4.82;;;;;;;10.87;42.68;98947.19;4991047;28;20037;-75
2021/04/17 09:47:16;;;;;;;5.80;4.00;;;;;;;10.69;41.77;98948.69;4990819;28;20038;-75
2021/04/17 09:49:46;;;;;;;7.30;4.10;;;;;;;11.04;41.96;98936.16;4975390;28;20038;-75
2021/04/17 09:52:18;;;;;;;8.43;4.60;;;;;;;11.08;43.15;98946.50;4989697;28;20064;-74
2021/04/17 09:54:55;;;;;;;7.90;5.47;;;;;;;11.39;43.41;98935.81;4993448;28;20026;-74
2021/04/17 09:57:20;;;;;;;8.93;5.07;;;;;;;11.14;43.59;98933.22;4984987;28;20034;-73
2021/04/17 09:59:57;;;;;;;9.25;5.90;;;;;;;11.55;42.21;98925.63;4993274;28;21733;-73
2021/04/17 10:02:24;;;;;;;7.53;5.17;;;;;;;12.10;41.44;98920.97;4988324;28;20053;-74
2021/04/17 10:04:59;;;;;;;7.90;5.33;;;;;;;12.25;41.10;98921.22;4989319;28;20045;-73
2021/04/17 10:07:25;;;;;;;9.90;6.20;;;;;;;12.01;41.95;98916.94;4986532;28;20602;-74
2021/04/17 10:10:15;;;;;;;9.18;4.75;;;;;;;11.50;41.49;98906.59;4976655;28;20065;-74
2021/04/17 10:12:47;;;;;;;8.35;3.78;;;;;;;10.79;40.07;98916.06;4989411;28;20466;-74
2021/04/17 10:15:27;;;;;;;6.93;3.78;;;;;;;10.67;41.91;98915.63;4983917;28;20346;-73
2021/04/17 10:17:55;;;;;;;7.38;4.30;;;;;;;10.23;42.88;98917.06;4991374;28;20117;-74
2021/04/17 10:20:21;;;;;;;7.88;4.05;;;;;;;10.12;43.73;98917.34;4979543;28;20030;-73
2021/04/17 10:22:54;;;;;;;7.50;3.97;;;;;;;10.28;43.59;98915.13;4986405;28;20026;-74
2021/04/17 10:25:35;;;;;;;6.90;4.07;;;;;;;10.03;44.08;98918.50;4982097;28;20392;-75
2021/04/17 10:28:26;;;;;;;5.80;3.80;;;;;;;10.43;43.47;98919.88;4980632;28;20038;-74
2021/04/17 10:30:57;;;;;;;8.68;4.10;;;;;;;10.90;42.89;98906.09;4989681;28;20030;-74
2021/04/17 10:33:27;;;;;;;7.03;4.78;;;;;;;11.24;42.65;98902.31;4991095;28;20044;-75
2021/04/17 10:35:58;;;;;;;8.52;5.05;;;;;;;12.21;40.71;98896.06;4982539;28;20030;-73
2021/04/17 10:38:32;;;;;;;8.70;5.20;;;;;;;12.91;38.60;98889.69;4972002;28;20141;-74
2021/04/17 10:41:00;;;;;;;9.02;5.38;;;;;;;12.98;37.92;98873.63;4988225;28;20031;-74
2021/04/17 10:43:26;;;;;;;7.88;4.68;;;;;;;13.71;36.73;98883.53;4991067;28;20038;-74
2021/04/17 10:46:00;;;;;;;9.40;5.75;;;;;;;14.25;34.96;98876.59;4980039;28;20026;-75
2021/04/17 10:48:40;;;;;;;8.90;4.78;;;;;;;14.79;34.08;98874.84;4987095;28;20103;-74
2021/04/17 10:51:11;;;;;;;7.38;4.68;;;;;;;14.07;34.41;98874.81;4992084;28;20034;-74
2021/04/17 10:53:41;;;;;;;10.88;4.20;;;;;;;14.66;33.38;98871.13;4985125;28;20026;-75
2021/04/17 10:56:19;;;;;;;6.88;3.75;;;;;;;14.05;34.06;98868.81;4980526;28;20065;-75
2021/04/17 10:58:47;;;;;;;6.35;4.22;;;;;;;13.66;35.98;98867.09;4990805;28;20025;-75
2021/04/17 11:01:23;;;;;;;6.53;4.13;;;;;;;13.93;36.03;98870.22;4988423;28;20045;-74
2021/04/17 11:03:57;;;;;;;7.45;4.00;;;;;;;14.39;35.31;98858.34;4990492;28;20408;-75
2021/04/17 11:06:25;;;;;;;7.60;3.70;;;;;;;14.01;35.51;98862.84;4985285;28;20026;-73
2021/04/17 11:09:13;;;;;;;4.13;2.67;;;;;;;14.55;32.49;98852.38;4997695;28;20057;-72
2021/04/17 11:11:56;;;;;;;6.22;3.22;;;;;;;12.94;32.77;98852.81;5004796;28;20433;-72
2021/04/17 11:14:25;;;;;;;5.43;2.58;;;;;;;15.33;29.58;98841.31;4990770;28;20030;-72
2021/04/17 11:16:52;;;;;;;5.78;2.50;;;;;;;16.77;27.02;98822.66;4995356;28;20096;-73
2021/04/17 11:19:27;;;;;;;4.15;2.70;;;;;;;15.59;28.50;98830.25;4992135;28;20033;-73
2021/04/17 11:22:06;;;;;;;3.80;2.53;;;;;;;12.20;33.34;98843.69;4976906;28;20038;-76
2021/04/17 11:24:32;;;;;;;5.43;2.60;;;;;;;13.49;31.53;98827.59;4970246;28;20396;-75
2021/04/17 11:26:57;;;;;;;6.00;2.67;;;;;;;15.69;30.65;98822.69;4982108;28;20102;-75
2021/04/17 11:29:25;;;;;;;4.47;2.70;;;;;;;15.73;30.23;98818.97;4987383;28;20031;-75
2021/04/17 11:31:50;;;;;;;5.35;2.55;;;;;;;15.80;28.73;98818.53;4984548;28;20329;-75
2021/04/17 11:34:17;;;;;;;6.35;3.30;;;;;;;16.43;28.97;98820.25;4996448;28;20384;-75
2021/04/17 11:36:43;;;;;;;6.63;2.83;;;;;;;15.79;28.48;98818.63;4976354;28;20045;-75
2021/04/17 11:39:09;;;;;;;4.30;2.40;;;;;;;16.74;25.82;98809.63;4996310;28;20567;-75
2021/04/17 11:41:37;;;;;;;4.22;2.50;;;;;;;16.45;26.12;98815.75;4990347;28;20126;-75
2021/04/17 11:44:05;;;;;;;4.13;2.75;;;;;;;15.79;28.66;98819.47;4988375;28;20346;-75
2021/04/17 11:46:30;;;;;;;6.97;2.80;;;;;;;14.60;29.25;98808.25;4983232;28;20026;-75